Monday, December 17, 2018, 6:12 AM EST
Back to Local

KFAF, Fort Eustis / Felker

Location: Fort Eustis, VA, United States Lat: 37.133
Local Time: 6:12 AM EST (11:12 GMT) Lon: -76.617
Time Zone: US/Eastern Elev: 13 ft

Show me the last for .
Show Decoded

2018-12-17 04:56 METAR KFAF 170956Z AUTO 00000KT 10SM CLR 03/02 A2991 RMK AO2 SLP132 T00330018 $
                 =
2018-12-17 03:56 METAR KFAF 170856Z AUTO 27003KT 10SM CLR 05/03 A2991 RMK AO2 DZB0756E21 SLP132
                 P0000 60000 T00450028 58001 $ =
2018-12-17 02:56 METAR KFAF 170756Z AUTO 28003KT 10SM CLR 05/03 A2991 RMK AO2 SLP132 P0000
                 T00540032 $ =
2018-12-17 02:47 METAR KFAF 170747Z AUTO 27003KT 10SM CLR 05/03 A2991 RMK AO2 SLP132 $ =
2018-12-17 01:56 METAR KFAF 170656Z AUTO 31007KT 10SM -DZ OVC040 07/04 A2992 RMK AO2 SLP135 P0000
                 T00650038 $ =
2018-12-17 00:56 METAR KFAF 170556Z AUTO 32008KT 10SM -DZ OVC039 07/04 A2992 RMK AO2 SLP135 P0000
                 60000 T00690039 10080 20063 51001 $ =
2018-12-16 23:56 METAR KFAF 170456Z AUTO 31005KT 10SM -DZ OVC040 07/04 A2992 RMK AO2 SLP135 P0000
                 T00660039 401140063 $ =
2018-12-16 22:56 METAR KFAF 170356Z AUTO 30007KT 10SM -DZ OVC042 07/04 A2992 RMK AO2 SLP135 P0000
                 T00650036 $ =
2018-12-16 21:56 METAR KFAF 170256Z AUTO 32009KT 10SM -DZ SCT037 07/04 A2992 RMK AO2 SLP135 P0000
                 60000 T00660043 52014 $ =
2018-12-16 20:56 METAR KFAF 170156Z AUTO 32008KT 10SM -DZ OVC065 07/05 A2991 RMK AO2 SLP132 P0000
                 T00710047 $ =
2018-12-16 19:56 METAR KFAF 170056Z AUTO 32009KT 10SM -DZ SCT016 OVC070 07/05 A2989 RMK AO2
                 SLP125 P0000 T00740050 $ =
2018-12-16 19:46 METAR KFAF 170046Z AUTO 32008KT 10SM -DZ SCT014 OVC070 08/05 A2989 RMK AO2
                 SLP125 $ =
2018-12-16 19:26 METAR KFAF 170026Z AUTO 32008KT 10SM -DZ BKN014 OVC065 08/06 A2988 RMK AO2
                 SLP122 $ =
2018-12-16 19:06 METAR KFAF 170006Z AUTO 32009KT 10SM -DZ BKN015 BKN065 08/06 A2988 RMK AO2
                 SLP122 $ =
2018-12-16 18:56 METAR KFAF 162356Z AUTO 32008KT 10SM -DZ BKN013 OVC070 08/06 A2988 RMK AO2 BKN V
                 OVC SLP122 P0000 60000 T00800060 10101 20080 52025 $ =
2018-12-16 17:56 METAR KFAF 162256Z AUTO 31008KT 10SM -DZ BKN013 OVC018 08/07 A2985 RMK AO2
                 SLP111 P0000 T00840065 $ =
2018-12-16 16:56 METAR KFAF 162156Z AUTO 30010KT 10SM -DZ OVC012 09/07 A2983 RMK AO2 SLP105 P0000
                 T00880071 $ =
2018-12-16 16:36 METAR KFAF 162136Z AUTO 30009KT 10SM -DZ OVC014 09/07 A2982 RMK AO2 SLP101 $ =
2018-12-16 15:56 METAR KFAF 162056Z AUTO 31010G17KT 10SM -DZ FEW010 OVC019 09/08 A2980 RMK AO2
                 SLP094 P0000 60000 T00910075 53007 $ =
2018-12-16 15:06 METAR KFAF 162006Z AUTO 30013KT 10SM -DZ BKN012 OVC020 10/08 A2980 RMK AO2
                 SLP094 $ =
2018-12-16 14:56 METAR KFAF 161956Z AUTO 30011KT 10SM -DZ BKN015 OVC020 10/08 A2979 RMK AO2
                 SLP091 P0000 T00960080 $ =
2018-12-16 14:46 METAR KFAF 161946Z AUTO 30010KT 10SM -DZ OVC016 10/08 A2979 RMK AO2 SLP091 $ =
2018-12-16 13:56 METAR KFAF 161856Z AUTO 31008KT 10SM -DZ BKN010 OVC015 10/09 A2978 RMK AO2
                 RAE09DZB09E12RAB12E22DZB22 CIG 010V013 SLP088 P0000 T01000086 $ =
2018-12-16 13:36 METAR KFAF 161836Z AUTO 28006KT 10SM -DZ OVC013 10/09 A2977 RMK AO2
                 RAE09DZB09E12RAB12E22DZB22 OVC V BKN SLP084 $ =
2018-12-16 12:56 METAR KFAF 161756Z AUTO 27008KT 10SM -RA BKN017 OVC023 10/08 A2978 RMK AO2
                 DZE36RAB36E49DZB49E50RAB50 CIG 017V027 BKN V SCT SLP088 P0001 60001 T01010084
                 10114 20085 57020 $ =
2018-12-16 11:56 METAR KFAF 161656Z AUTO 27006KT 10SM -DZ BKN035 11/10 A2979 RMK AO2
                 DZE03RAB03E17DZB17 SLP091 P0000 T01110103 $ =
2018-12-16 11:26 METAR KFAF 161626Z AUTO 28007KT 10SM -DZ SCT009 SCT017 BKN035 10/09 A2980 RMK
                 AO2 DZE03RAB03E17DZB17 SLP094 $ =
2018-12-16 10:56 METAR KFAF 161556Z AUTO 32006KT 10SM -DZ OVC011 10/10 A2982 RMK AO2 SLP101 P0000
                 T01020096 $ =
2018-12-16 10:06 METAR KFAF 161506Z AUTO 24005KT 10SM -DZ BKN010 BKN034 OVC050 10/10 A2984 RMK
                 AO2 CIG 010V050 BKN010 V SCT SLP108 $ =
2018-12-16 09:56 METAR KFAF 161456Z AUTO 25004KT 10SM -DZ SCT010 OVC055 10/09 A2984 RMK AO2
                 SLP108 P0000 60000 T01000094 55003 $ =
2018-12-16 09:16 METAR KFAF 161416Z AUTO 22005KT 10SM -DZ SCT008 OVC055 10/09 A2984 RMK AO2
                 SLP108 $ =
2018-12-16 08:56 METAR KFAF 161356Z AUTO 21004KT 10SM -DZ BKN008 OVC060 10/09 A2984 RMK AO2 CIG
                 008V060 BKN V SCT SLP108 P0000 T00950090 $ =
2018-12-16 08:51 METAR KFAF 161351Z AUTO 22004KT 10SM -DZ BKN008 BKN060 10/09 A2984 RMK AO2 CIG
                 008V060 BKN008 V SCT SLP108 $ =
2018-12-16 08:31 METAR KFAF 161331Z AUTO 20005KT 10SM -DZ FEW060 09/09 A2984 RMK AO2 SLP108 $ =
2018-12-16 08:15 METAR KFAF 161315Z AUTO 18004KT 10SM CLR 09/08 A2984 RMK AO2 SLP108 $ =
2018-12-16 07:56 METAR KFAF 161256Z AUTO 00000KT 10SM -DZ FEW012 09/08 A2984 RMK AO2 SLP108 P0000
                 T00860081 $ =
2018-12-16 07:26 METAR KFAF 161226Z AUTO 00000KT 10SM -DZ SCT008 OVC050 09/08 A2985 RMK AO2
                 SLP111 $ =
2018-12-16 07:16 METAR KFAF 161216Z AUTO 00000KT 10SM -DZ BKN008 OVC050 09/08 A2985 RMK AO2 BKN V
                 OVC SLP111 $ =
2018-12-16 07:06 METAR KFAF 161206Z AUTO 00000KT 10SM -DZ OVC007 09/08 A2985 RMK AO2 OVC V BKN
                 SLP111 $ =
2018-12-16 06:56 METAR KFAF 161156Z AUTO 00000KT 10SM -DZ BKN008 OVC012 09/08 A2985 RMK AO2
                 SLP111 P0000 60000 70017 T00890084 10107 20082 55006 $ =

Support USWX by starting your Amazon purchase here.